createdAt,value
2022-09-26T00:01:33.305Z,97.6
2022-09-26T00:07:25.188Z,99.9
2022-09-26T00:13:16.200Z,98.6
2022-09-26T00:19:07.650Z,98.6
2022-09-26T00:26:03.772Z,97.9
2022-09-26T00:31:53.771Z,97.7
2022-09-26T00:37:44.899Z,99
2022-09-26T00:43:35.570Z,99.2
2022-09-26T00:49:26.554Z,99.2
2022-09-26T00:55:17.637Z,99.1
2022-09-26T01:01:08.809Z,100
2022-09-26T01:07:01.441Z,100
2022-09-26T01:12:52.090Z,100
2022-09-26T01:18:43.077Z,100
2022-09-26T01:24:34.119Z,100
2022-09-26T01:30:25.047Z,99
2022-09-26T01:36:16.955Z,98.8
2022-09-26T01:42:08.535Z,98.7
2022-09-26T01:47:59.806Z,98.7
2022-09-26T01:53:50.713Z,98.7
2022-09-26T01:59:41.694Z,98.6
2022-09-26T02:05:32.258Z,100
2022-09-26T02:11:23.597Z,99.9
2022-09-26T02:17:14.348Z,98.7
2022-09-26T02:23:05.172Z,100
2022-09-26T02:28:56.234Z,100
2022-09-26T02:34:48.054Z,99.6
2022-09-26T02:40:37.297Z,98.8
2022-09-26T02:46:28.205Z,99.5
2022-09-26T02:52:19.236Z,98.5
2022-09-26T02:58:10.350Z,98.8
2022-09-26T03:04:02.573Z,98.8
2022-09-26T03:09:55.751Z,99.8
2022-09-26T03:15:46.668Z,99.7
2022-09-26T03:21:38.619Z,99.7
2022-09-26T03:27:29.135Z,100
2022-09-26T03:33:19.489Z,100
2022-09-26T03:39:10.158Z,100
2022-09-26T03:45:04.053Z,100
2022-09-26T03:50:56.010Z,97.6
2022-09-26T03:56:46.474Z,97.7
2022-09-26T04:02:38.026Z,98.1
2022-09-26T04:08:28.947Z,97.6
2022-09-26T04:14:19.309Z,100
2022-09-26T04:20:10.048Z,100
2022-09-26T04:26:00.670Z,100
2022-09-26T04:31:51.324Z,100
2022-09-26T04:37:42.074Z,100
2022-09-26T04:43:33.682Z,100
2022-09-26T04:49:26.209Z,100
2022-09-26T04:55:17.892Z,100
2022-09-26T05:01:06.839Z,100
2022-09-26T05:06:57.425Z,100
2022-09-26T05:12:47.874Z,100
2022-09-26T05:18:38.924Z,100
2022-09-26T05:24:30.938Z,100
2022-09-26T05:30:22.151Z,100
2022-09-26T05:36:12.489Z,100
2022-09-26T05:42:04.586Z,100
2022-09-26T05:47:55.612Z,100
2022-09-26T05:53:47.669Z,100
2022-09-26T05:59:38.324Z,100
2022-09-26T06:05:30.542Z,100
2022-09-26T06:11:20.391Z,100
2022-09-26T06:17:11.036Z,100
2022-09-26T06:23:03.487Z,100
2022-09-26T06:28:54.343Z,100
2022-09-26T06:34:44.846Z,100
2022-09-26T06:40:35.834Z,100
2022-09-26T06:46:27.265Z,100
2022-09-26T06:52:18.362Z,100
2022-09-26T06:58:10.229Z,100
2022-09-26T07:04:01.038Z,100
2022-09-26T07:09:51.537Z,100
2022-09-26T07:15:42.972Z,100
2022-09-26T07:21:34.364Z,100
2022-09-26T07:27:25.717Z,100
2022-09-26T07:33:16.817Z,99.5
2022-09-26T07:39:08.473Z,98
2022-09-26T07:45:30.192Z,96.4
2022-09-26T07:51:20.167Z,94.7
2022-09-26T07:57:11.109Z,93.7
2022-09-26T08:03:02.516Z,93.6
2022-09-26T08:08:54.269Z,92
2022-09-26T08:14:45.785Z,86.5
2022-09-26T08:20:36.517Z,85.3
2022-09-26T08:26:27.626Z,84.6
2022-09-26T08:32:18.920Z,83
2022-09-26T08:38:10.798Z,82.4
2022-09-26T08:44:01.871Z,81.7
2022-09-26T08:49:53.763Z,82.4
2022-09-26T08:55:45.639Z,81.6
2022-09-26T09:01:37.065Z,82.5
2022-09-26T09:07:28.295Z,84.9
2022-09-26T09:13:21.071Z,85.2
2022-09-26T09:19:30.009Z,86
2022-09-26T09:32:37.734Z,87.3
2022-09-26T09:45:23.409Z,89.5
2022-09-26T09:51:23.269Z,90.6
2022-09-26T09:58:04.641Z,90.5
2022-09-26T10:10:39.387Z,92.3
2022-09-26T10:16:57.940Z,92.8
2022-09-26T10:29:27.844Z,97.4
2022-09-26T11:01:52.453Z,96.7
2022-09-26T11:08:07.936Z,96.6
2022-09-26T11:14:06.388Z,95.8
2022-09-26T11:20:03.581Z,96.8
2022-09-26T11:26:01.737Z,97
2022-09-26T11:32:08.152Z,96
2022-09-26T12:19:02.248Z,84.3
2022-09-26T12:25:24.388Z,82.9
2022-09-26T12:31:28.164Z,81.7
2022-09-26T12:37:47.639Z,81.8
2022-09-26T12:50:43.986Z,81.3
2022-09-26T13:16:07.767Z,80.3
2022-09-26T13:22:26.104Z,79.7
2022-09-26T13:28:28.289Z,79.4
2022-09-26T13:34:37.936Z,80.9
2022-09-26T13:46:34.636Z,87.4
2022-09-26T13:59:06.791Z,93.3
2022-09-26T14:05:12.625Z,96
2022-09-26T14:11:12.640Z,98.7
2022-09-26T14:17:07.432Z,100
2022-09-26T14:23:12.959Z,99.6
2022-09-26T14:29:23.239Z,100
2022-09-26T14:36:06.851Z,100
2022-09-26T14:42:10.475Z,100
2022-09-26T14:48:20.245Z,100
2022-09-26T15:18:15.364Z,100
2022-09-26T15:24:31.934Z,100
2022-09-26T15:30:29.163Z,100
2022-09-26T15:36:25.715Z,100
2022-09-26T15:42:16.700Z,100
2022-09-26T15:48:11.107Z,100
2022-09-26T15:54:21.857Z,100
2022-09-26T16:00:22.900Z,100
2022-09-26T16:06:13.333Z,100
2022-09-26T16:12:15.336Z,100
2022-09-26T16:18:29.561Z,100
2022-09-26T16:24:22.658Z,100
2022-09-26T16:30:25.171Z,100
2022-09-26T16:36:35.241Z,100
2022-09-26T16:42:44.196Z,100
2022-09-26T16:48:47.879Z,100
2022-09-26T16:54:52.525Z,100
2022-09-26T17:06:41.175Z,100
2022-09-26T17:12:46.839Z,100
2022-09-26T17:18:45.095Z,100
2022-09-26T17:24:36.991Z,100
2022-09-26T17:30:45.794Z,100
2022-09-26T17:36:39.654Z,100
2022-09-26T17:42:51.240Z,100
2022-09-26T18:28:23.844Z,100
2022-09-26T18:40:56.082Z,100
2022-09-26T18:47:11.752Z,100
2022-09-26T19:06:01.377Z,100
2022-09-26T19:24:59.742Z,100
2022-09-26T19:36:54.603Z,100
2022-09-26T19:43:00.754Z,100
2022-09-26T19:49:01.619Z,100
2022-09-26T19:54:54.061Z,100
2022-09-26T20:00:54.294Z,100
2022-09-26T20:06:48.329Z,100
2022-09-26T20:12:54.269Z,100
2022-09-26T20:18:45.586Z,100
2022-09-26T20:24:42.070Z,100
2022-09-26T20:30:49.955Z,100
2022-09-26T20:36:54.057Z,100
2022-09-26T20:42:46.246Z,100
2022-09-26T20:48:39.701Z,100
2022-09-26T20:54:31.506Z,100
2022-09-26T21:00:29.887Z,100
2022-09-26T21:06:30.515Z,100
2022-09-26T21:12:24.730Z,100
2022-09-26T21:18:16.126Z,100
2022-09-26T21:24:08.495Z,100
2022-09-26T21:30:12.546Z,100
2022-09-26T21:36:24.786Z,100
2022-09-26T21:43:29.609Z,100
2022-09-26T21:49:19.558Z,100
2022-09-26T21:55:10.213Z,100
2022-09-26T22:01:01.181Z,100
2022-09-26T22:06:50.222Z,100
2022-09-26T22:12:40.631Z,100
2022-09-26T22:18:31.802Z,100
2022-09-26T22:24:22.214Z,100
2022-09-26T22:30:13.225Z,100
2022-09-26T22:36:04.799Z,100
2022-09-26T22:41:55.554Z,100
2022-09-26T22:47:46.008Z,100
2022-09-26T22:53:39.598Z,100
2022-09-26T22:59:33.547Z,100
2022-09-26T23:05:24.437Z,100
2022-09-26T23:11:17.981Z,100
2022-09-26T23:17:08.707Z,100
2022-09-26T23:23:01.982Z,100
2022-09-26T23:28:52.463Z,100
2022-09-26T23:34:43.522Z,100
2022-09-26T23:40:34.839Z,100
2022-09-26T23:46:27.789Z,100
2022-09-26T23:52:17.891Z,100
2022-09-26T23:58:08.895Z,100
